createdAt,value
2019-04-23T00:02:29.146Z,4.08
2019-04-23T00:05:02.737Z,4.37
2019-04-23T00:10:12.313Z,3.83
2019-04-23T00:12:43.666Z,4.42
2019-04-23T00:15:07.563Z,4.30
2019-04-23T00:20:07.828Z,4.10
2019-04-23T00:22:50.070Z,4.22
2019-04-23T00:25:33.150Z,4.53
2019-04-23T00:27:51.861Z,4.65
2019-04-23T00:30:18.847Z,4.12
2019-04-23T00:32:48.067Z,4.47
2019-04-23T00:35:18.100Z,3.92
2019-04-23T00:37:49.952Z,4.25
2019-04-23T00:40:27.067Z,4.08
2019-04-23T00:43:08.613Z,4.45
2019-04-23T00:45:28.719Z,3.55
2019-04-23T00:52:57.616Z,4.37
2019-04-23T00:55:29.469Z,3.95
2019-04-23T00:58:08.189Z,4.33
2019-04-23T01:03:05.776Z,3.80
2019-04-23T01:05:37.601Z,4.50
2019-04-23T01:08:08.282Z,3.85
2019-04-23T01:10:52.373Z,4.17
2019-04-23T01:15:53.197Z,4.25
2019-04-23T01:20:52.424Z,4.22
2019-04-23T01:23:16.010Z,4.00
2019-04-23T01:25:58.155Z,4.25
2019-04-23T01:31:14.674Z,4.45
2019-04-23T01:33:51.543Z,4.30
2019-04-23T01:36:23.370Z,4.12
2019-04-23T01:38:55.005Z,4.50
2019-04-23T01:41:20.476Z,3.95
2019-04-23T01:43:47.611Z,3.85
2019-04-23T01:46:23.426Z,4.55
2019-04-23T01:48:53.524Z,3.87
2019-04-23T01:51:26.472Z,3.85
2019-04-23T01:53:51.517Z,3.67
2019-04-23T01:56:24.291Z,4.17
2019-04-23T01:58:59.207Z,3.95
2019-04-23T02:01:25.547Z,4.10
2019-04-23T02:06:25.152Z,4.03
2019-04-23T02:08:58.565Z,4.33
2019-04-23T02:11:25.640Z,4.03
2019-04-23T02:14:05.428Z,4.33
2019-04-23T02:16:30.658Z,3.67
2019-04-23T02:19:07.742Z,4.40
2019-04-23T02:21:38.431Z,4.25
2019-04-23T02:24:08.671Z,5.03
2019-04-23T02:26:34.132Z,4.30
2019-04-23T02:34:21.683Z,4.05
2019-04-23T02:39:12.216Z,4.30
2019-04-23T02:41:54.404Z,4.12
2019-04-23T02:46:59.357Z,4.20
2019-04-23T02:52:10.990Z,4.62
2019-04-23T02:56:51.450Z,4.20
2019-04-23T03:02:15.470Z,3.98
2019-04-23T03:04:47.716Z,4.03
2019-04-23T03:07:02.910Z,4.17
2019-04-23T03:14:33.424Z,3.85
2019-04-23T03:17:09.666Z,4.37
2019-04-23T03:22:35.602Z,4.17
2019-04-23T03:25:10.259Z,4.87
2019-04-23T03:27:31.521Z,3.65
2019-04-23T03:37:35.611Z,3.87
2019-04-23T03:42:38.752Z,4.15
2019-04-23T03:45:08.021Z,4.10
2019-04-23T03:47:32.024Z,4.50
2019-04-23T03:50:09.209Z,4.12
2019-04-23T03:52:36.982Z,4.45
2019-04-23T03:55:06.256Z,4.47
2019-04-23T04:05:04.050Z,4.65
2019-04-23T04:09:59.315Z,4.40
2019-04-23T04:12:39.870Z,4.42
2019-04-23T04:17:55.620Z,4.42
2019-04-23T04:20:19.619Z,4.60
2019-04-23T04:25:15.917Z,4.20
2019-04-23T04:27:54.505Z,4.12
2019-04-23T04:32:59.131Z,3.92
2019-04-23T04:43:02.219Z,4.45
2019-04-23T04:45:30.367Z,4.90
2019-04-23T04:47:45.527Z,3.95
2019-04-23T04:50:22.228Z,4.25
2019-04-23T04:53:00.762Z,4.47
2019-04-23T04:55:23.596Z,4.03
2019-04-23T04:57:56.696Z,5.72
2019-04-23T05:00:32.927Z,4.25
2019-04-23T05:10:32.611Z,4.00
2019-04-23T05:13:12.094Z,4.33
2019-04-23T05:15:23.502Z,4.03
2019-04-23T05:20:37.307Z,3.83
2019-04-23T05:23:09.104Z,3.72
2019-04-23T05:25:32.674Z,4.40
2019-04-23T05:28:08.162Z,4.75
2019-04-23T05:30:38.372Z,4.62
2019-04-23T05:36:04.346Z,4.08
2019-04-23T05:38:21.738Z,4.75
2019-04-23T05:40:52.021Z,4.50
2019-04-23T05:43:12.637Z,3.95
2019-04-23T05:45:42.945Z,3.85
2019-04-23T05:50:51.901Z,3.47
2019-04-23T05:53:20.026Z,4.10
2019-04-23T05:55:49.386Z,4.03
2019-04-23T05:58:23.260Z,4.15
2019-04-23T06:00:54.514Z,4.45
2019-04-23T06:03:22.917Z,4.30
2019-04-23T06:05:58.250Z,4.20
2019-04-23T06:10:55.656Z,5.10
2019-04-23T06:13:26.283Z,4.55
2019-04-23T06:15:59.593Z,4.95
2019-04-23T06:18:33.197Z,4.17
2019-04-23T06:26:19.867Z,4.25
2019-04-23T06:28:46.945Z,4.25
2019-04-23T06:31:01.989Z,4.53
2019-04-23T06:33:34.144Z,4.65
2019-04-23T06:36:05.568Z,4.50
2019-04-23T06:38:55.005Z,4.72
2019-04-23T06:41:12.576Z,4.53
2019-04-23T06:43:54.671Z,4.80
2019-04-23T06:46:21.289Z,4.20
2019-04-23T06:48:47.018Z,4.78
2019-04-23T06:51:27.151Z,4.67
2019-04-23T06:53:55.077Z,4.72
2019-04-23T06:56:25.006Z,5.10
2019-04-23T06:58:50.435Z,4.85
2019-04-23T07:01:17.688Z,4.75
2019-04-23T07:04:02.954Z,4.55
2019-04-23T07:09:09.896Z,4.47
2019-04-23T07:13:57.605Z,4.53
2019-04-23T07:16:38.441Z,4.33
2019-04-23T07:19:05.086Z,4.58
2019-04-23T07:21:42.093Z,5.15
2019-04-23T07:29:04.955Z,5.10
2019-04-23T07:31:44.498Z,5.10
2019-04-23T07:34:05.519Z,5.90
2019-04-23T07:36:38.895Z,5.12
2019-04-23T07:41:56.869Z,4.92
2019-04-23T07:44:38.370Z,4.72
2019-04-23T07:47:15.682Z,5.08
2019-04-23T07:52:11.053Z,4.50
2019-04-23T07:54:39.992Z,4.58
2019-04-23T07:57:14.966Z,5.17
2019-04-23T07:59:42.999Z,4.85
2019-04-23T08:02:14.181Z,4.62
2019-04-23T08:04:53.055Z,5.37
2019-04-23T08:12:19.336Z,5.15
2019-04-23T08:14:46.927Z,4.53
2019-04-23T08:17:10.764Z,4.92
2019-04-23T08:19:49.420Z,5.30
2019-04-23T08:25:00.406Z,5.47
2019-04-23T08:27:27.980Z,4.95
2019-04-23T08:30:00.283Z,5.47
2019-04-23T08:32:21.266Z,5.42
2019-04-23T08:35:13.747Z,5.03
2019-04-23T08:37:49.695Z,5.30
2019-04-23T08:40:01.871Z,5.30
2019-04-23T08:48:04.175Z,4.47
2019-04-23T08:50:27.449Z,4.53
2019-04-23T08:53:03.844Z,4.95
2019-04-23T08:55:34.621Z,5.00
2019-04-23T08:57:55.450Z,4.87
2019-04-23T09:00:32.642Z,4.70
2019-04-23T09:03:06.365Z,5.22
2019-04-23T09:08:15.431Z,5.22
2019-04-23T09:10:41.046Z,5.00
2019-04-23T09:13:35.307Z,5.33
2019-04-23T09:15:48.306Z,4.78
2019-04-23T09:18:15.797Z,4.75
2019-04-23T09:20:37.466Z,4.58
2019-04-23T09:23:13.298Z,4.60
2019-04-23T09:28:31.113Z,4.65
2019-04-23T09:33:36.236Z,4.58
2019-04-23T09:36:23.855Z,4.50
2019-04-23T09:44:41.060Z,4.50
2019-04-23T09:49:35.734Z,4.17
2019-04-23T09:52:11.181Z,5.33
2019-04-23T09:56:57.086Z,5.50
2019-04-23T09:59:39.129Z,4.80
2019-04-23T10:01:54.123Z,4.83
2019-04-23T10:04:23.276Z,4.67
2019-04-23T10:06:49.448Z,4.72
2019-04-23T10:09:12.663Z,4.75
2019-04-23T10:11:43.009Z,5.17
2019-04-23T10:14:12.526Z,4.55
2019-04-23T10:16:43.199Z,4.65
2019-04-23T10:19:12.607Z,4.58
2019-04-23T10:21:43.749Z,4.20
2019-04-23T10:24:13.052Z,5.03
2019-04-23T10:26:43.803Z,4.45
2019-04-23T10:29:15.937Z,4.30
2019-04-23T10:31:46.082Z,4.05
2019-04-23T10:34:16.898Z,4.05
2019-04-23T10:36:47.394Z,4.47
2019-04-23T10:39:23.321Z,4.42
2019-04-23T10:41:48.795Z,4.83
2019-04-23T10:44:21.362Z,4.30
2019-04-23T10:50:17.278Z,3.83
2019-04-23T10:52:56.165Z,3.95
2019-04-23T10:55:11.974Z,3.95
2019-04-23T10:57:49.461Z,3.67
2019-04-23T11:00:19.808Z,3.40
2019-04-23T11:02:47.602Z,3.20
2019-04-23T11:05:33.244Z,2.67
2019-04-23T11:07:41.964Z,2.72
2019-04-23T11:10:21.905Z,3.00
2019-04-23T11:15:32.208Z,3.05
2019-04-23T11:22:56.775Z,3.40
2019-04-23T11:30:45.307Z,3.12
2019-04-23T11:40:37.010Z,3.60
2019-04-23T11:45:59.216Z,2.92
2019-04-23T11:58:21.889Z,3.45
2019-04-23T12:01:23.638Z,3.33
2019-04-23T12:03:59.666Z,3.00
2019-04-23T12:06:25.067Z,3.20
2019-04-23T12:08:56.316Z,3.52
2019-04-23T12:11:52.697Z,3.65
2019-04-23T12:14:37.301Z,2.90
2019-04-23T12:17:07.881Z,3.75
2019-04-23T12:22:03.559Z,3.30
2019-04-23T12:24:58.846Z,3.52
2019-04-23T12:27:00.127Z,3.65
2019-04-23T12:29:33.178Z,3.15
2019-04-23T12:32:15.580Z,4.00
2019-04-23T12:34:47.055Z,3.50
2019-04-23T12:37:15.076Z,3.50
2019-04-23T12:39:45.004Z,3.40
2019-04-23T12:42:39.111Z,3.40
2019-04-23T12:44:51.564Z,3.22
2019-04-23T12:47:27.510Z,3.55
2019-04-23T12:52:17.615Z,3.22
2019-04-23T12:54:58.999Z,3.17
2019-04-23T12:57:17.431Z,3.02
2019-04-23T12:59:49.860Z,3.42
2019-04-23T13:02:27.339Z,3.50
2019-04-23T13:07:26.440Z,3.35
2019-04-23T13:10:09.666Z,3.20
2019-04-23T13:12:40.000Z,3.30
2019-04-23T13:15:05.742Z,3.45
2019-04-23T13:17:39.721Z,3.25
2019-04-23T13:20:00.200Z,3.00
2019-04-23T13:22:39.851Z,3.30
2019-04-23T13:25:03.536Z,2.83
2019-04-23T13:35:28.196Z,2.50
2019-04-23T13:37:54.543Z,2.45
2019-04-23T13:40:24.473Z,2.47
2019-04-23T13:42:55.159Z,2.60
2019-04-23T13:48:03.218Z,2.80
2019-04-23T13:50:30.789Z,2.80
2019-04-23T13:53:08.133Z,2.35
2019-04-23T13:55:15.298Z,3.08
2019-04-23T13:58:07.424Z,2.62
2019-04-23T14:00:35.086Z,2.35
2019-04-23T14:03:09.773Z,2.15
2019-04-23T14:05:29.662Z,2.33
2019-04-23T14:08:00.879Z,1.90
2019-04-23T14:13:16.987Z,2.10
2019-04-23T14:15:41.250Z,1.70
2019-04-23T14:18:27.339Z,1.82
2019-04-23T14:20:32.255Z,1.70
2019-04-23T14:25:50.621Z,1.80
2019-04-23T14:28:26.302Z,1.80
2019-04-23T14:30:46.771Z,1.35
2019-04-23T14:33:17.719Z,1.62
2019-04-23T14:35:46.710Z,1.60
2019-04-23T14:38:29.762Z,1.57
2019-04-23T14:46:33.738Z,1.50
2019-04-23T14:48:39.255Z,1.30
2019-04-23T14:51:11.088Z,1.40
2019-04-23T14:53:27.160Z,1.30
2019-04-23T14:58:47.540Z,1.10
2019-04-23T15:01:25.003Z,1.57
2019-04-23T15:11:20.897Z,1.20
2019-04-23T15:13:44.795Z,1.22
2019-04-23T15:16:17.017Z,1.47
2019-04-23T15:19:02.355Z,1.00
2019-04-23T15:24:00.935Z,1.35
2019-04-23T15:28:36.554Z,1.05
2019-04-23T15:31:28.501Z,1.27
2019-04-23T15:34:10.697Z,1.50
2019-04-23T15:36:47.200Z,1.00
2019-04-23T15:41:34.683Z,1.25
2019-04-23T15:44:07.383Z,1.30
2019-04-23T15:46:35.495Z,1.20
2019-04-23T15:51:35.170Z,1.60
2019-04-23T15:54:14.437Z,1.07
2019-04-23T15:56:44.620Z,1.20
2019-04-23T16:01:34.057Z,1.20
2019-04-23T16:03:41.826Z,1.00
2019-04-23T16:06:13.232Z,1.20
2019-04-23T16:16:46.398Z,1.40
2019-04-23T16:22:00.186Z,1.30
2019-04-23T16:24:43.304Z,1.32
2019-04-23T16:27:04.453Z,1.55
2019-04-23T16:29:32.782Z,1.67
2019-04-23T16:32:22.533Z,1.25
2019-04-23T16:36:59.495Z,1.42
2019-04-23T16:39:31.427Z,1.30
2019-04-23T16:42:09.992Z,1.22
2019-04-23T16:47:16.840Z,1.22
2019-04-23T16:50:03.164Z,1.07
2019-04-23T16:52:12.122Z,1.00
2019-04-23T16:54:40.784Z,1.50
2019-04-23T16:57:21.529Z,1.37
2019-04-23T16:59:48.696Z,1.10
2019-04-23T17:02:14.824Z,1.05
2019-04-23T17:07:06.893Z,1.20
2019-04-23T17:09:51.174Z,1.20
2019-04-23T17:12:15.068Z,1.20
2019-04-23T17:14:49.683Z,1.30
2019-04-23T17:17:13.249Z,1.20
2019-04-23T17:19:50.390Z,1.52
2019-04-23T17:22:17.616Z,1.25
2019-04-23T17:24:59.419Z,1.30
2019-04-23T17:27:23.609Z,1.40
2019-04-23T17:29:58.910Z,1.37
2019-04-23T17:32:28.324Z,1.45
2019-04-23T17:37:38.584Z,1.90
2019-04-23T17:40:23.045Z,1.50
2019-04-23T17:42:55.508Z,1.80
2019-04-23T17:45:38.521Z,2.08
2019-04-23T17:48:08.783Z,1.82
2019-04-23T17:53:19.879Z,1.52
2019-04-23T17:56:01.081Z,1.30
2019-04-23T17:58:26.851Z,1.42
2019-04-23T18:01:05.586Z,1.47
2019-04-23T18:03:27.106Z,1.47
2019-04-23T18:06:14.214Z,2.52
2019-04-23T18:08:26.802Z,2.52
2019-04-23T18:16:18.985Z,1.75
2019-04-23T18:18:42.224Z,2.20
2019-04-23T18:21:36.255Z,1.85
2019-04-23T18:24:03.003Z,1.67
2019-04-23T18:26:36.337Z,1.80
2019-04-23T18:29:19.286Z,1.70
2019-04-23T18:31:56.202Z,2.00
2019-04-23T18:34:45.407Z,2.12
2019-04-23T18:37:01.834Z,2.30
2019-04-23T18:39:38.955Z,2.02
2019-04-23T18:42:11.528Z,2.45
2019-04-23T18:44:42.145Z,2.40
2019-04-23T18:47:06.723Z,2.47
2019-04-23T18:49:40.905Z,1.98
2019-04-23T18:52:20.929Z,2.20
2019-04-23T19:02:35.213Z,1.80
2019-04-23T19:07:43.014Z,1.72
2019-04-23T19:10:29.180Z,2.15
2019-04-23T19:13:07.684Z,1.80
2019-04-23T19:17:51.635Z,2.62
2019-04-23T19:20:39.917Z,2.80
2019-04-23T19:25:22.303Z,2.33
2019-04-23T19:27:59.270Z,3.52
2019-04-23T19:30:43.011Z,2.70
2019-04-23T19:33:05.753Z,2.92
2019-04-23T19:35:59.717Z,3.52
2019-04-23T19:38:12.949Z,2.92
2019-04-23T19:40:48.817Z,2.87
2019-04-23T19:43:12.072Z,3.00
2019-04-23T19:45:50.190Z,3.25
2019-04-23T19:48:19.306Z,2.22
2019-04-23T19:50:55.571Z,1.90
2019-04-23T19:53:33.767Z,1.82
2019-04-23T19:56:00.539Z,1.60
2019-04-23T19:58:26.150Z,2.40
2019-04-23T20:05:57.201Z,1.32
2019-04-23T20:08:34.041Z,1.65
2019-04-23T20:10:54.608Z,1.60
2019-04-23T20:13:32.493Z,1.32
2019-04-23T20:18:42.425Z,1.50
2019-04-23T20:24:02.968Z,1.47
2019-04-23T20:29:01.981Z,1.52
2019-04-23T20:31:33.486Z,1.40
2019-04-23T20:32:16.803Z,1.70
2019-04-23T20:39:06.178Z,1.30
2019-04-23T20:42:07.802Z,1.45
2019-04-23T20:47:03.376Z,1.60
2019-04-23T20:49:34.649Z,1.90
2019-04-23T20:52:04.652Z,1.70
2019-04-23T20:57:24.703Z,1.50
2019-04-23T21:00:02.051Z,1.52
2019-04-23T21:02:42.101Z,1.37
2019-04-23T21:05:03.585Z,1.70
2019-04-23T21:07:31.264Z,1.50
2019-04-23T21:10:09.616Z,1.42
2019-04-23T21:12:43.250Z,1.65
2019-04-23T21:15:04.873Z,1.57
2019-04-23T21:17:41.896Z,1.80
2019-04-23T21:20:08.726Z,1.60
2019-04-23T21:22:37.871Z,2.05
2019-04-23T21:25:14.452Z,1.77
2019-04-23T21:27:46.466Z,1.70
2019-04-23T21:30:32.951Z,1.50
2019-04-23T21:32:49.587Z,1.82
2019-04-23T21:35:16.915Z,1.80
2019-04-23T21:37:53.723Z,1.62
2019-04-23T21:43:10.482Z,1.70
2019-04-23T21:45:56.931Z,2.15
2019-04-23T21:50:49.042Z,1.75
2019-04-23T21:53:06.848Z,2.00
2019-04-23T21:55:54.313Z,2.10
2019-04-23T21:58:17.292Z,2.30
2019-04-23T22:00:55.083Z,1.98
2019-04-23T22:03:18.189Z,2.25
2019-04-23T22:05:51.188Z,1.87
2019-04-23T22:08:16.995Z,1.70
2019-04-23T22:11:00.504Z,2.12
2019-04-23T22:13:50.802Z,1.92
2019-04-23T22:16:04.235Z,1.87
2019-04-23T22:18:23.635Z,2.12
2019-04-23T22:25:56.692Z,2.10
2019-04-23T22:28:30.057Z,2.30
2019-04-23T22:33:24.992Z,1.92
2019-04-23T22:36:06.264Z,2.00
2019-04-23T22:38:26.312Z,2.30
2019-04-23T22:41:10.061Z,2.02
2019-04-23T22:43:30.745Z,1.55
2019-04-23T22:48:34.275Z,1.57
2019-04-23T22:51:10.888Z,1.70
2019-04-23T22:53:46.044Z,1.45
2019-04-23T22:58:44.399Z,1.30
2019-04-23T23:03:50.932Z,1.30
2019-04-23T23:06:29.571Z,1.35
2019-04-23T23:08:59.883Z,1.10
2019-04-23T23:11:22.614Z,1.32
2019-04-23T23:14:10.143Z,1.25
2019-04-23T23:16:24.562Z,1.27
2019-04-23T23:19:14.889Z,1.52
2019-04-23T23:21:31.063Z,1.12
2019-04-23T23:23:59.426Z,1.40
2019-04-23T23:26:36.085Z,1.30
2019-04-23T23:29:13.063Z,1.30
2019-04-23T23:31:29.514Z,1.17
2019-04-23T23:34:02.607Z,1.10
2019-04-23T23:36:38.613Z,1.10
2019-04-23T23:39:05.308Z,1.10
2019-04-23T23:49:14.132Z,0.93
2019-04-23T23:51:43.579Z,0.98
2019-04-23T23:54:08.224Z,1.20
2019-04-23T23:56:47.770Z,0.80
2019-04-23T23:59:16.138Z,1.32
